Time;durP1;ratioP1;P1;durP2;ratioP2;P2;SDS_P1;SDS_P2;PMS_P1;PMS_P2;Temp;Humidity;BMP_temperature;BMP_pressure;BME280_temperature;BME280_humidity;BME280_pressure;Samples;Min_cycle;Max_cycle;Signal;HPM_P1;HPM_P2
2022/03/14 00:23:33;;;;;;;13.45;9.30;;;7.60;99.90;;;;;;5971114;23;20032;-37
2022/03/14 00:26:59;;;;;;;15.35;10.18;;;7.60;99.90;;;;;;5973264;23;20035;-37
2022/03/14 00:30:22;;;;;;;15.00;10.00;;;7.60;99.90;;;;;;5973486;23;20016;-37
2022/03/14 00:40:40;;;;;;;14.25;9.57;;;7.70;99.90;;;;;;5999456;23;19914;-37
2022/03/14 00:44:07;;;;;;;15.38;10.73;;;7.80;99.90;;;;;;5974049;23;20024;-37
2022/03/14 00:47:33;;;;;;;13.68;9.52;;;7.80;99.90;;;;;;5952518;23;20096;-37
2022/03/14 00:50:58;;;;;;;13.98;9.50;;;7.80;99.90;;;;;;5997263;23;20016;-37
2022/03/14 00:54:29;;;;;;;14.52;10.30;;;7.80;99.90;;;;;;6000361;23;20027;-37
2022/03/14 00:57:52;;;;;;;15.57;10.45;;;7.80;99.90;;;;;;5971379;23;20279;-37
2022/03/14 01:01:18;;;;;;;15.55;9.75;;;7.80;99.90;;;;;;5973924;23;20098;-37
2022/03/14 01:04:44;;;;;;;14.63;9.88;;;7.80;99.90;;;;;;5973755;23;20019;-37
2022/03/14 01:08:10;;;;;;;15.07;10.65;;;7.80;99.90;;;;;;5972338;23;20363;-37
2022/03/14 01:11:37;;;;;;;12.93;9.52;;;7.80;99.90;;;;;;5973264;23;20020;-37
2022/03/14 01:15:03;;;;;;;16.20;9.70;;;7.60;99.90;;;;;;5974691;23;20156;-37
2022/03/14 01:18:29;;;;;;;15.13;9.75;;;7.70;99.90;;;;;;5951201;23;20023;-37
2022/03/14 01:21:53;;;;;;;15.23;9.65;;;7.70;99.90;;;;;;5959602;23;20509;-37
2022/03/14 01:25:21;;;;;;;13.02;9.35;;;7.70;99.90;;;;;;6001773;23;20026;-37
2022/03/14 01:28:48;;;;;;;13.73;9.40;;;7.70;99.90;;;;;;6003476;23;20023;-37
2022/03/14 01:32:11;;;;;;;15.95;10.75;;;7.70;99.90;;;;;;6004611;23;20070;-37
2022/03/14 01:35:39;;;;;;;13.38;9.73;;;7.80;99.90;;;;;;6006658;23;20359;-38
2022/03/14 01:39:05;;;;;;;14.18;10.25;;;7.70;99.90;;;;;;6004328;23;20109;-37
2022/03/14 01:42:29;;;;;;;13.93;10.38;;;7.80;99.90;;;;;;6004172;23;20098;-38
2022/03/14 01:45:56;;;;;;;14.02;9.55;;;7.70;99.90;;;;;;6005691;23;20030;-37
2022/03/14 01:49:20;;;;;;;15.10;10.50;;;7.70;99.90;;;;;;6029918;23;20011;-37
2022/03/14 01:52:47;;;;;;;12.77;9.50;;;7.70;99.90;;;;;;5984248;23;20027;-37
2022/03/14 01:56:13;;;;;;;14.30;10.23;;;7.70;99.90;;;;;;6029851;23;20015;-37
2022/03/14 01:59:40;;;;;;;14.85;9.95;;;7.70;99.90;;;;;;6004675;23;20034;-37
2022/03/14 02:03:05;;;;;;;14.52;9.45;;;7.70;99.90;;;;;;6027934;23;20031;-37
2022/03/14 02:06:35;;;;;;;16.15;9.95;;;7.70;99.90;;;;;;6002879;23;20295;-37
2022/03/14 02:09:59;;;;;;;14.27;10.07;;;7.70;99.90;;;;;;5978635;23;20023;-37
2022/03/14 02:13:25;;;;;;;14.45;9.68;;;7.80;99.90;;;;;;6002830;23;20019;-37
2022/03/14 02:16:50;;;;;;;14.85;10.95;;;7.80;99.90;;;;;;6028676;23;20046;-37
2022/03/14 02:20:16;;;;;;;13.10;9.85;;;7.70;99.90;;;;;;6030908;23;20023;-37
2022/03/14 02:23:42;;;;;;;13.82;9.82;;;7.70;99.90;;;;;;6000902;23;20059;-38
2022/03/14 02:27:08;;;;;;;13.85;9.80;;;7.70;99.90;;;;;;5954420;23;20030;-37
2022/03/14 02:30:33;;;;;;;15.93;10.45;;;7.60;99.90;;;;;;6001734;23;20016;-37
2022/03/14 02:34:00;;;;;;;13.63;10.25;;;7.60;99.90;;;;;;5977454;23;20084;-37
2022/03/14 02:37:26;;;;;;;15.00;10.25;;;7.60;99.90;;;;;;5976407;23;20015;-37
2022/03/14 02:40:52;;;;;;;14.80;9.02;;;7.60;99.90;;;;;;6002291;23;20035;-37
2022/03/14 02:44:24;;;;;;;14.43;10.10;;;7.60;99.90;;;;;;6000891;23;20086;-37
2022/03/14 02:47:44;;;;;;;11.98;8.75;;;7.60;99.90;;;;;;5976205;23;20023;-37
2022/03/14 02:51:12;;;;;;;12.25;9.15;;;7.60;99.90;;;;;;5974010;23;20092;-37
2022/03/14 02:54:37;;;;;;;13.57;9.13;;;7.60;99.90;;;;;;5999245;23;20024;-37
2022/03/14 02:58:04;;;;;;;15.20;9.65;;;7.60;99.90;;;;;;5975525;23;20284;-37
2022/03/14 03:01:29;;;;;;;14.00;9.15;;;7.60;99.90;;;;;;5974506;23;20015;-37
2022/03/14 03:04:55;;;;;;;15.60;10.50;;;7.60;99.90;;;;;;6000564;23;20316;-37
2022/03/14 03:08:22;;;;;;;13.05;9.68;;;7.70;99.90;;;;;;5971355;23;20485;-37
2022/03/14 03:11:48;;;;;;;13.20;9.23;;;7.60;99.90;;;;;;5973035;23;20114;-37
2022/03/14 03:15:15;;;;;;;13.63;9.90;;;7.70;99.90;;;;;;5975503;23;20031;-38
2022/03/14 03:18:38;;;;;;;14.98;10.07;;;7.70;99.90;;;;;;5975793;23;20102;-38
2022/03/14 03:22:04;;;;;;;13.85;10.70;;;7.60;99.90;;;;;;5983565;23;20042;-37
2022/03/14 03:25:32;;;;;;;14.48;10.80;;;7.60;99.90;;;;;;6030044;23;20071;-37
2022/03/14 03:28:56;;;;;;;14.13;9.65;;;7.60;99.90;;;;;;6003178;23;20015;-37
2022/03/14 03:32:22;;;;;;;13.35;10.07;;;7.60;99.90;;;;;;6003984;23;20034;-37
2022/03/14 03:35:48;;;;;;;15.68;9.45;;;7.60;99.90;;;;;;5979057;23;20094;-37
2022/03/14 03:39:14;;;;;;;15.02;9.35;;;7.60;99.90;;;;;;6002662;23;20094;-37
2022/03/14 03:42:39;;;;;;;14.13;9.43;;;7.60;99.90;;;;;;6027966;23;20019;-37
2022/03/14 03:46:06;;;;;;;13.73;9.77;;;7.60;99.90;;;;;;6003801;23;20430;-37
2022/03/14 03:49:32;;;;;;;13.82;9.02;;;7.60;99.90;;;;;;6027862;23;20015;-38
2022/03/14 03:52:57;;;;;;;13.65;9.50;;;7.60;99.90;;;;;;6029183;23;20371;-37
2022/03/14 03:56:23;;;;;;;14.35;9.13;;;7.50;99.90;;;;;;6028979;23;20022;-37
2022/03/14 03:59:50;;;;;;;14.55;9.82;;;7.60;99.90;;;;;;5979730;23;20031;-37
2022/03/14 04:03:19;;;;;;;12.18;9.07;;;7.60;99.90;;;;;;6029213;23;20058;-37
2022/03/14 04:06:42;;;;;;;12.75;9.23;;;7.60;99.90;;;;;;6003992;23;20488;-37
2022/03/14 04:10:11;;;;;;;10.75;7.93;;;7.70;99.90;;;;;;6004382;23;20354;-38
2022/03/14 04:13:34;;;;;;;13.20;7.88;;;7.70;99.90;;;;;;6004198;23;20078;-38
2022/03/14 04:17:04;;;;;;;13.57;8.13;;;7.70;99.90;;;;;;6029124;23;20079;-37
2022/03/14 04:20:25;;;;;;;11.17;7.97;;;7.70;99.90;;;;;;5980811;23;20030;-37
2022/03/14 04:23:51;;;;;;;12.77;7.88;;;7.70;99.90;;;;;;5981060;23;20513;-37
2022/03/14 04:27:17;;;;;;;10.57;6.97;;;7.70;99.90;;;;;;6002094;23;20023;-37
2022/03/14 04:30:43;;;;;;;12.50;8.35;;;7.70;99.90;;;;;;5979786;23;20026;-38
2022/03/14 04:34:08;;;;;;;11.82;7.75;;;7.70;99.90;;;;;;6029049;23;20095;-37
2022/03/14 04:37:37;;;;;;;11.32;7.00;;;7.70;99.90;;;;;;6003594;23;20022;-37
2022/03/14 04:41:02;;;;;;;10.05;6.82;;;7.70;99.90;;;;;;6029283;23;20012;-37
2022/03/14 04:44:29;;;;;;;10.15;7.30;;;7.70;99.90;;;;;;6002831;23;20106;-37
2022/03/14 04:47:55;;;;;;;9.43;6.95;;;7.70;99.90;;;;;;6003907;23;20043;-38
2022/03/14 04:51:20;;;;;;;11.75;7.70;;;7.80;99.90;;;;;;6027155;23;20027;-38
2022/03/14 04:54:46;;;;;;;12.18;7.13;;;7.80;99.90;;;;;;5978737;23;20029;-37
2022/03/14 04:58:14;;;;;;;10.35;7.10;;;7.70;99.90;;;;;;6001952;23;20385;-37
2022/03/14 05:01:37;;;;;;;10.15;6.65;;;7.70;99.90;;;;;;6004935;23;20026;-38
2022/03/14 05:05:04;;;;;;;7.97;5.75;;;7.70;99.90;;;;;;6006197;23;20034;-37
2022/03/14 05:08:30;;;;;;;9.88;5.85;;;7.70;99.90;;;;;;6005082;23;20020;-37
2022/03/14 05:11:56;;;;;;;7.53;5.43;;;7.70;99.90;;;;;;6004776;23;20106;-37
2022/03/14 05:15:22;;;;;;;7.60;5.25;;;7.70;99.90;;;;;;6027646;23;20474;-37
2022/03/14 05:18:48;;;;;;;6.22;4.55;;;7.70;99.90;;;;;;6006168;23;20486;-37
2022/03/14 05:25:48;;;;;;;8.38;4.40;;;7.80;99.90;;;;;;6003755;23;20126;-37
2022/03/14 05:29:12;;;;;;;7.28;4.20;;;7.90;99.90;;;;;;6026408;23;20028;-37
2022/03/14 05:32:32;;;;;;;5.55;4.15;;;8.00;99.90;;;;;;5978099;23;20024;-37
2022/03/14 05:35:58;;;;;;;6.05;3.83;;;8.00;99.90;;;;;;5977093;23;20023;-37
2022/03/14 05:39:24;;;;;;;5.25;3.97;;;8.10;99.90;;;;;;6003199;23;20372;-37
2022/03/14 05:42:49;;;;;;;5.45;4.05;;;8.10;99.90;;;;;;5950822;23;20027;-37
2022/03/14 05:46:21;;;;;;;6.10;4.07;;;8.20;99.90;;;;;;5978620;23;20012;-37
2022/03/14 05:49:44;;;;;;;5.05;3.45;;;8.20;99.90;;;;;;5976485;23;20018;-38
2022/03/14 05:53:12;;;;;;;4.97;3.28;;;8.20;99.90;;;;;;6023412;23;20086;-37
2022/03/14 05:56:35;;;;;;;6.90;3.83;;;8.20;99.90;;;;;;5976931;23;20102;-38
2022/03/14 06:00:00;;;;;;;5.22;3.50;;;8.20;99.90;;;;;;6001491;23;20031;-37
2022/03/14 06:03:27;;;;;;;6.47;3.72;;;8.20;99.90;;;;;;6024076;23;20031;-37
2022/03/14 06:06:52;;;;;;;5.60;3.40;;;8.20;99.90;;;;;;6000022;23;20077;-37
2022/03/14 06:10:25;;;;;;;4.95;3.42;;;8.20;99.90;;;;;;5979199;23;20015;-37
2022/03/14 06:13:45;;;;;;;4.70;3.35;;;8.20;99.90;;;;;;5977052;23;20176;-37
2022/03/14 06:17:11;;;;;;;5.53;3.65;;;8.20;99.90;;;;;;5978513;23;20513;-37
2022/03/14 06:20:42;;;;;;;5.25;3.65;;;8.20;99.90;;;;;;6003458;23;20012;-37
2022/03/14 06:24:05;;;;;;;4.82;3.30;;;8.20;99.90;;;;;;5976866;23;20028;-37
2022/03/14 06:27:30;;;;;;;5.88;3.63;;;8.20;99.90;;;;;;5999171;23;20059;-37
2022/03/14 06:30:56;;;;;;;5.53;3.42;;;8.20;99.90;;;;;;5976428;23;20042;-37
2022/03/14 06:34:21;;;;;;;5.60;3.80;;;8.20;99.90;;;;;;6002558;23;20019;-38
2022/03/14 06:37:50;;;;;;;6.40;4.03;;;8.20;99.90;;;;;;5978161;23;20071;-37
2022/03/14 06:41:14;;;;;;;7.13;4.20;;;8.20;99.90;;;;;;5954260;23;20031;-37
2022/03/14 06:44:40;;;;;;;6.93;4.47;;;8.20;99.90;;;;;;5977449;23;20016;-37
2022/03/14 06:48:05;;;;;;;5.63;3.92;;;8.20;99.90;;;;;;5976050;23;20039;-38
2022/03/14 06:51:32;;;;;;;5.82;4.10;;;8.20;99.90;;;;;;5949091;23;20023;-38
2022/03/14 06:54:57;;;;;;;6.38;4.53;;;8.30;99.90;;;;;;5998138;23;20090;-37
2022/03/14 06:58:24;;;;;;;6.35;3.85;;;8.30;99.90;;;;;;5945246;23;20043;-38
2022/03/14 07:01:51;;;;;;;5.70;3.72;;;8.30;99.90;;;;;;5952467;23;20015;-38
2022/03/14 07:05:23;;;;;;;6.00;4.05;;;8.30;99.90;;;;;;5974920;23;20423;-38
2022/03/14 07:08:41;;;;;;;5.95;4.28;;;8.30;99.90;;;;;;5975671;23;20019;-37
2022/03/14 07:12:07;;;;;;;5.47;4.10;;;8.40;99.90;;;;;;5975069;23;20015;-38
2022/03/14 07:15:32;;;;;;;6.70;4.30;;;8.40;99.90;;;;;;5975097;23;20024;-38
2022/03/14 07:18:59;;;;;;;5.53;3.85;;;8.40;99.90;;;;;;6002395;23;20046;-38
2022/03/14 07:25:58;;;;;;;5.75;4.00;;;8.50;99.90;;;;;;6002612;23;20171;-38
2022/03/14 07:29:17;;;;;;;4.88;3.72;;;8.50;99.90;;;;;;6003459;23;20292;-38
2022/03/14 07:32:44;;;;;;;5.53;3.83;;;8.50;99.90;;;;;;5997967;23;20024;-38
2022/03/14 07:36:11;;;;;;;5.50;3.90;;;8.60;99.90;;;;;;5951015;23;20015;-38
2022/03/14 07:39:34;;;;;;;5.25;3.55;;;8.60;99.90;;;;;;6000882;23;20099;-38
2022/03/14 07:43:02;;;;;;;5.13;3.90;;;8.70;99.90;;;;;;6000357;23;20027;-38
2022/03/14 07:46:29;;;;;;;5.50;4.00;;;8.70;99.90;;;;;;5975709;23;20012;-40
2022/03/14 07:49:55;;;;;;;6.15;3.92;;;8.70;99.90;;;;;;5975315;23;20023;-38
2022/03/14 07:53:21;;;;;;;5.78;4.75;;;8.70;99.90;;;;;;5952255;23;20023;-38
2022/03/14 07:56:47;;;;;;;6.45;4.03;;;8.80;99.90;;;;;;5998777;23;20055;-38
2022/03/14 08:00:13;;;;;;;5.70;4.25;;;8.80;99.90;;;;;;5974621;23;20159;-38
2022/03/14 08:03:37;;;;;;;6.03;4.57;;;8.90;99.90;;;;;;5950826;23;20031;-38
2022/03/14 08:07:03;;;;;;;6.03;4.22;;;8.90;99.90;;;;;;5973206;23;20095;-39
2022/03/14 08:13:58;;;;;;;12.05;4.80;;;8.90;99.90;;;;;;6002372;23;20023;-39
2022/03/14 08:17:22;;;;;;;6.20;4.28;;;8.90;99.90;;;;;;5953267;23;20020;-39
2022/03/14 08:20:53;;;;;;;8.15;4.38;;;8.90;99.90;;;;;;5999831;23;20039;-39
2022/03/14 08:24:14;;;;;;;6.13;4.40;;;8.80;99.90;;;;;;5998086;23;20111;-39
2022/03/14 08:27:40;;;;;;;6.15;4.75;;;8.80;99.90;;;;;;5971554;23;20023;-39
2022/03/14 08:31:06;;;;;;;5.22;4.30;;;8.80;99.90;;;;;;5976351;23;20050;-39
2022/03/14 08:34:32;;;;;;;6.60;4.88;;;8.80;99.90;;;;;;5972796;23;20059;-40
2022/03/14 08:38:01;;;;;;;7.75;4.75;;;8.90;99.90;;;;;;6006087;23;20054;-40
2022/03/14 08:41:24;;;;;;;7.40;4.80;;;8.90;99.90;;;;;;5978605;23;20028;-40
2022/03/14 08:44:54;;;;;;;8.35;4.90;;;8.90;99.90;;;;;;5974043;23;20612;-40
2022/03/14 08:48:19;;;;;;;8.23;5.30;;;8.90;99.90;;;;;;6002515;23;20015;-40
2022/03/14 08:51:43;;;;;;;6.70;4.60;;;9.00;99.90;;;;;;5999539;23;20099;-40
2022/03/14 08:55:09;;;;;;;6.88;4.97;;;9.00;99.90;;;;;;5998123;23;20028;-40
2022/03/14 08:58:35;;;;;;;5.88;4.50;;;9.10;99.90;;;;;;5975858;23;20024;-40
2022/03/14 09:02:03;;;;;;;8.23;5.20;;;9.20;99.90;;;;;;6005209;23;20031;-40
2022/03/14 09:05:29;;;;;;;7.65;5.15;;;9.20;99.90;;;;;;6001202;23;20086;-39
2022/03/14 09:08:55;;;;;;;8.27;5.70;;;9.30;99.90;;;;;;6001987;23;20508;-39
2022/03/14 09:12:19;;;;;;;7.10;5.35;;;9.30;99.90;;;;;;5976219;23;20102;-39
2022/03/14 09:15:47;;;;;;;7.72;5.60;;;9.30;99.90;;;;;;6004716;23;20020;-40
2022/03/14 09:19:14;;;;;;;6.78;5.38;;;9.30;99.90;;;;;;5996346;23;20018;-40
2022/03/14 09:22:44;;;;;;;7.50;5.72;;;9.40;99.90;;;;;;6003236;23;20027;-40
2022/03/14 09:26:04;;;;;;;7.32;5.63;;;9.40;99.90;;;;;;5979499;23;20019;-40
2022/03/14 09:33:02;;;;;;;7.18;5.30;;;9.50;99.90;;;;;;5999384;23;20158;-41
2022/03/14 09:36:25;;;;;;;8.02;6.40;;;9.60;99.90;;;;;;6003496;23;20091;-41
2022/03/14 09:39:50;;;;;;;8.25;6.25;;;9.70;99.90;;;;;;6002690;23;20108;-40
2022/03/14 09:43:19;;;;;;;9.30;6.80;;;9.70;99.90;;;;;;6005911;23;20430;-40
2022/03/14 09:46:42;;;;;;;8.50;6.45;;;9.80;99.90;;;;;;6002646;23;20012;-40
2022/03/14 09:50:09;;;;;;;8.85;6.35;;;9.80;99.90;;;;;;6002990;23;20023;-40
2022/03/14 09:53:35;;;;;;;10.55;6.88;;;9.80;99.90;;;;;;6003745;23;20016;-41
2022/03/14 09:57:01;;;;;;;8.90;6.90;;;9.90;99.90;;;;;;5975851;23;20291;-41
2022/03/14 10:00:28;;;;;;;10.50;6.82;;;9.90;99.90;;;;;;6003132;23;20465;-40
2022/03/14 10:03:54;;;;;;;10.20;8.18;;;9.90;99.90;;;;;;5979227;23;20062;-40
2022/03/14 10:07:21;;;;;;;11.88;8.73;;;9.90;99.90;;;;;;6004414;23;20016;-40
2022/03/14 10:10:46;;;;;;;9.75;7.90;;;9.90;99.90;;;;;;6003360;23;20098;-40
2022/03/14 10:14:19;;;;;;;12.57;8.60;;;9.90;99.90;;;;;;6000381;23;20023;-40
2022/03/14 10:17:39;;;;;;;11.13;8.18;;;9.90;99.90;;;;;;6003132;23;20087;-40
2022/03/14 10:21:10;;;;;;;10.80;8.38;;;10.00;99.90;;;;;;6004575;23;20023;-40
2022/03/14 10:28:11;;;;;;;11.45;8.18;;;9.90;99.90;;;;;;6005877;23;20492;-40
2022/03/14 10:31:28;;;;;;;14.93;9.02;;;9.90;99.90;;;;;;5976045;23;20043;-39
2022/03/14 10:34:48;;;;;;;11.63;8.18;;;9.80;99.90;;;;;;5999751;23;20023;-39
2022/03/14 10:38:14;;;;;;;13.95;9.10;;;9.70;99.90;;;;;;5978868;23;20035;-39
2022/03/14 10:41:40;;;;;;;15.88;9.95;;;9.60;99.90;;;;;;5997483;23;20474;-39
2022/03/14 10:45:06;;;;;;;14.05;9.85;;;9.50;99.90;;;;;;6000441;23;20027;-39
2022/03/14 10:48:33;;;;;;;19.65;10.88;;;9.50;99.90;;;;;;6004760;23;20019;-39
2022/03/14 10:51:58;;;;;;;16.00;11.52;;;9.60;99.90;;;;;;6001446;23;20618;-39
2022/03/14 10:55:24;;;;;;;17.95;10.57;;;9.60;99.90;;;;;;5997836;23;20459;-39
2022/03/14 11:02:34;;;;;;;15.52;9.27;;;9.70;99.90;;;;;;6001171;23;20143;-40
2022/03/14 11:05:51;;;;;;;14.57;8.98;;;9.80;99.90;;;;;;5980481;23;20024;-39
2022/03/14 11:09:11;;;;;;;15.95;9.13;;;9.80;99.90;;;;;;5972709;23;20024;-39
2022/03/14 11:12:35;;;;;;;17.13;8.32;;;9.80;99.90;;;;;;6002922;23;20099;-40
2022/03/14 11:19:33;;;;;;;16.30;7.82;;;9.90;99.90;;;;;;6001816;23;20030;-39
2022/03/14 11:22:57;;;;;;;18.73;8.40;;;9.80;99.90;;;;;;5998827;23;20514;-39
2022/03/14 11:26:23;;;;;;;23.73;9.15;;;9.90;99.90;;;;;;5974370;23;20030;-40
2022/03/14 11:29:50;;;;;;;18.23;7.25;;;9.90;99.90;;;;;;5975048;23;20022;-40
2022/03/14 11:33:14;;;;;;;17.35;8.15;;;9.90;99.90;;;;;;5997799;23;20023;-42
2022/03/14 11:36:41;;;;;;;12.75;7.25;;;9.90;99.90;;;;;;6001759;23;20455;-39
2022/03/14 11:40:08;;;;;;;19.65;8.30;;;9.90;99.90;;;;;;5976865;23;20020;-39
2022/03/14 11:43:34;;;;;;;18.20;7.45;;;9.90;99.90;;;;;;6004277;23;20064;-39
2022/03/14 11:46:59;;;;;;;18.58;8.10;;;9.90;99.90;;;;;;5996710;23;20379;-39
2022/03/14 11:50:29;;;;;;;20.45;8.40;;;9.90;99.90;;;;;;5979305;23;20080;-39
2022/03/14 11:53:51;;;;;;;18.70;8.05;;;9.90;99.90;;;;;;5976970;23;20024;-39
2022/03/14 11:57:24;;;;;;;18.77;8.00;;;9.90;99.90;;;;;;6003181;23;20046;-39
2022/03/14 12:00:45;;;;;;;17.23;7.20;;;9.90;99.90;;;;;;6001633;23;20019;-40
2022/03/14 12:04:11;;;;;;;19.27;7.53;;;9.90;99.90;;;;;;5979411;23;20055;-39
2022/03/14 12:07:39;;;;;;;19.17;7.90;;;9.90;99.90;;;;;;6003069;23;20098;-39
2022/03/14 12:11:03;;;;;;;17.73;8.13;;;9.90;99.90;;;;;;6002113;23;20023;-39
2022/03/14 12:14:29;;;;;;;17.45;7.93;;;9.90;99.90;;;;;;6003441;23;20026;-39
2022/03/14 12:17:57;;;;;;;14.93;7.88;;;9.90;99.90;;;;;;5999767;23;20090;-39
2022/03/14 12:21:23;;;;;;;18.42;8.23;;;9.90;99.90;;;;;;6002798;23;20012;-39
2022/03/14 12:28:21;;;;;;;15.98;7.43;;;10.00;99.90;;;;;;6001868;23;20027;-39
2022/03/14 12:31:41;;;;;;;18.02;7.10;;;10.00;99.90;;;;;;6003095;23;20035;-39
2022/03/14 12:35:07;;;;;;;15.80;7.22;;;10.00;99.90;;;;;;5978805;23;20451;-39
2022/03/14 12:38:33;;;;;;;18.33;7.95;;;10.00;99.90;;;;;;5954762;23;20024;-39
2022/03/14 12:41:59;;;;;;;18.65;7.72;;;10.00;99.90;;;;;;6002738;23;20026;-39
2022/03/14 12:49:11;;;;;;;20.40;8.48;;;10.00;99.90;;;;;;6003828;23;20010;-39
2022/03/14 12:52:29;;;;;;;17.33;9.25;;;10.00;99.90;;;;;;5976334;23;20201;-39
2022/03/14 12:55:47;;;;;;;20.88;10.13;;;10.00;99.90;;;;;;5957498;23;20027;-39
2022/03/14 12:59:10;;;;;;;19.20;10.80;;;10.00;99.90;;;;;;5976169;23;20016;-39
2022/03/14 13:02:36;;;;;;;23.70;11.10;;;10.10;99.90;;;;;;5978303;23;20040;-38
2022/03/14 13:06:01;;;;;;;18.67;10.38;;;10.10;99.90;;;;;;5998824;23;20084;-39
2022/03/14 13:09:27;;;;;;;17.90;10.45;;;10.20;99.90;;;;;;5948358;23;20055;-38
2022/03/14 13:12:53;;;;;;;19.33;10.98;;;10.30;99.90;;;;;;5953969;23;20020;-38
2022/03/14 13:16:19;;;;;;;24.02;12.18;;;10.40;99.90;;;;;;5972901;23;20027;-39
2022/03/14 13:19:46;;;;;;;20.38;10.68;;;10.50;99.90;;;;;;5999739;23;20330;-39
2022/03/14 13:23:13;;;;;;;20.90;10.98;;;10.50;99.90;;;;;;5983615;23;20038;-38
2022/03/14 13:26:37;;;;;;;22.20;10.32;;;10.50;99.90;;;;;;6002509;23;20031;-39
2022/03/14 13:30:05;;;;;;;20.92;10.88;;;10.60;99.90;;;;;;6001821;23;20034;-39
2022/03/14 13:33:29;;;;;;;23.88;12.02;;;10.60;99.90;;;;;;5978827;23;20402;-39
2022/03/14 13:36:55;;;;;;;23.20;11.25;;;10.70;99.90;;;;;;6003321;23;20145;-39
2022/03/14 13:40:21;;;;;;;14.07;8.93;;;10.70;99.90;;;;;;6028653;23;20015;-38
2022/03/14 13:43:48;;;;;;;18.00;9.00;;;10.80;99.90;;;;;;6027979;23;20015;-38
2022/03/14 13:47:15;;;;;;;18.02;8.13;;;10.80;99.90;;;;;;6003131;23;20015;-40
2022/03/14 13:50:40;;;;;;;16.27;8.32;;;10.90;99.90;;;;;;6028412;23;20023;-41
2022/03/14 13:54:06;;;;;;;16.77;8.18;;;11.00;99.90;;;;;;6002824;23;20015;-39
2022/03/14 13:57:32;;;;;;;20.80;9.25;;;11.00;99.90;;;;;;6003483;23;20031;-39
2022/03/14 14:00:58;;;;;;;18.02;8.40;;;11.10;99.90;;;;;;6002081;23;20047;-39
2022/03/14 14:04:24;;;;;;;17.38;8.18;;;11.20;99.90;;;;;;5978520;23;20130;-39
2022/03/14 14:07:50;;;;;;;18.20;7.38;;;11.30;99.90;;;;;;6001319;23;20019;-39
2022/03/14 14:11:14;;;;;;;17.63;7.57;;;11.30;99.90;;;;;;6027788;23;20410;-39
2022/03/14 14:14:40;;;;;;;16.27;7.22;;;11.40;99.90;;;;;;6029319;23;20435;-39
2022/03/14 14:18:08;;;;;;;17.13;7.28;;;11.50;99.90;;;;;;6030660;23;20020;-39
2022/03/14 14:21:34;;;;;;;12.68;6.47;;;11.60;99.90;;;;;;6001825;23;20023;-39
2022/03/14 14:28:33;;;;;;;14.10;6.28;;;11.70;99.90;;;;;;5998929;23;20039;-39
2022/03/14 14:31:52;;;;;;;12.50;6.13;;;11.80;99.90;;;;;;5997650;23;20016;-39
2022/03/14 14:35:18;;;;;;;15.23;6.67;;;11.90;99.90;;;;;;5999756;23;20016;-39
2022/03/14 14:38:44;;;;;;;16.05;6.30;;;11.90;99.90;;;;;;6000257;23;20016;-39
2022/03/14 14:42:09;;;;;;;14.10;6.15;;;12.00;99.90;;;;;;5999458;23;20016;-39
2022/03/14 14:45:35;;;;;;;11.13;5.68;;;12.00;99.90;;;;;;5996942;23;20339;-40
2022/03/14 14:49:01;;;;;;;14.57;6.15;;;12.00;99.90;;;;;;5987902;23;20057;-39
2022/03/14 14:52:27;;;;;;;14.68;6.10;;;12.10;99.90;;;;;;5995654;23;20098;-39
2022/03/14 14:55:53;;;;;;;14.50;5.68;;;12.20;99.90;;;;;;6000468;23;20354;-39
2022/03/14 14:59:20;;;;;;;12.65;4.68;;;12.30;99.90;;;;;;6001387;23;20020;-39
2022/03/14 15:02:45;;;;;;;15.65;5.13;;;12.30;99.90;;;;;;5973116;23;20031;-39
2022/03/14 15:06:12;;;;;;;12.93;4.72;;;12.40;99.90;;;;;;5971964;23;20062;-39
2022/03/14 15:09:40;;;;;;;12.18;4.35;;;12.30;99.90;;;;;;5998198;23;20458;-39
2022/03/14 15:13:04;;;;;;;12.90;4.22;;;12.20;99.90;;;;;;5972868;23;20327;-40
2022/03/14 15:16:30;;;;;;;11.48;3.95;;;12.20;99.90;;;;;;5998140;23;20095;-40
2022/03/14 15:19:56;;;;;;;13.40;3.85;;;12.10;99.90;;;;;;5998768;23;20115;-39
2022/03/14 15:23:22;;;;;;;8.88;3.40;;;12.10;99.90;;;;;;5994759;23;20031;-39
2022/03/14 15:26:48;;;;;;;12.25;3.40;;;12.00;99.90;;;;;;5996750;23;20019;-39
2022/03/14 15:30:15;;;;;;;17.33;4.55;;;12.00;99.90;;;;;;5996539;23;20087;-39
2022/03/14 15:33:39;;;;;;;10.30;2.80;;;12.00;99.90;;;;;;5998927;23;20067;-39
2022/03/14 15:37:06;;;;;;;12.45;2.83;;;11.90;99.90;;;;;;5993689;23;20304;-39
2022/03/14 15:40:32;;;;;;;10.43;3.00;;;11.90;99.90;;;;;;5996820;23;20030;-39
2022/03/14 15:43:57;;;;;;;12.75;2.53;;;11.90;99.90;;;;;;5995081;23;20317;-39
2022/03/14 15:53:13;;;;;;;11.43;2.97;;;12.00;99.90;;;;;;5981045;23;20035;-39
2022/03/14 15:56:02;;;;;;;9.38;3.03;;;11.90;99.90;;;;;;5999477;23;20022;-39
2022/03/14 15:59:24;;;;;;;9.18;2.90;;;11.90;99.90;;;;;;6000594;23;20031;-39
2022/03/14 16:08:38;;;;;;;8.73;2.70;;;11.70;99.90;;;;;;6000129;23;20034;-39
2022/03/14 16:11:26;;;;;;;10.20;2.55;;;11.70;99.90;;;;;;5994948;23;20026;-39
2022/03/14 16:25:12;;;;;;;11.07;2.72;;;11.60;99.90;;;;;;6000572;23;20082;-39
2022/03/14 16:28:38;;;;;;;11.88;2.30;;;11.50;99.90;;;;;;6000397;23;20027;-39
2022/03/14 16:32:04;;;;;;;12.50;2.65;;;11.50;99.90;;;;;;6003828;23;20389;-39
2022/03/14 16:35:30;;;;;;;9.88;2.60;;;11.50;99.90;;;;;;6002367;23;20023;-39
2022/03/14 16:38:55;;;;;;;7.60;1.75;;;11.30;99.90;;;;;;6028052;23;20024;-38
2022/03/14 16:42:22;;;;;;;11.52;2.30;;;11.30;99.90;;;;;;5980330;23;20023;-39
2022/03/14 16:45:48;;;;;;;7.75;2.40;;;11.10;99.90;;;;;;5999795;23;20382;-39
2022/03/14 16:49:14;;;;;;;15.48;2.10;;;11.00;99.90;;;;;;5998202;23;20022;-38
2022/03/14 16:52:39;;;;;;;9.05;2.10;;;10.90;99.90;;;;;;5977692;23;20102;-39
2022/03/14 16:56:06;;;;;;;8.95;1.95;;;10.80;99.90;;;;;;6003921;23;20037;-39
2022/03/14 16:59:34;;;;;;;8.88;2.13;;;10.70;99.90;;;;;;6028737;23;20059;-39
2022/03/14 17:06:34;;;;;;;10.52;2.20;;;10.50;99.90;;;;;;6028779;23;20106;-39
2022/03/14 17:09:51;;;;;;;12.75;2.35;;;10.40;99.90;;;;;;6003017;23;20027;-38
2022/03/14 17:13:18;;;;;;;8.48;2.05;;;10.30;99.90;;;;;;6000979;23;20019;-38
2022/03/14 17:16:49;;;;;;;9.00;2.20;;;10.20;99.90;;;;;;6027000;23;20015;-38
2022/03/14 17:20:10;;;;;;;10.80;3.00;;;10.10;99.90;;;;;;6003073;23;20023;-38
2022/03/14 17:23:37;;;;;;;9.90;2.35;;;10.00;99.90;;;;;;5971231;23;20095;-38
2022/03/14 17:27:02;;;;;;;14.52;2.50;;;9.90;99.90;;;;;;6000826;23;20182;-38
2022/03/14 17:30:29;;;;;;;14.77;2.28;;;9.80;99.90;;;;;;5999066;23;20083;-38
2022/03/14 17:33:55;;;;;;;10.85;2.58;;;9.70;99.90;;;;;;6000741;23;20054;-38
2022/03/14 17:37:22;;;;;;;13.85;3.00;;;9.50;99.90;;;;;;5996867;23;20096;-38
2022/03/14 17:40:48;;;;;;;13.20;2.85;;;9.40;99.90;;;;;;5976123;23;20051;-38
2022/03/14 17:44:11;;;;;;;14.85;3.58;;;9.30;99.90;;;;;;5971892;23;20347;-38
2022/03/14 18:01:23;;;;;;;8.68;3.22;;;8.80;99.90;;;;;;6000441;23;20027;-38
2022/03/14 18:46:01;;;;;;;13.52;3.88;;;7.80;99.90;;;;;;5976508;23;20111;-38
2022/03/14 19:10:04;;;;;;;11.02;3.47;;;7.60;99.90;;;;;;5999971;23;20023;-37
2022/03/14 19:27:22;;;;;;;15.73;3.40;;;7.40;99.90;;;;;;6000690;23;20573;-37
2022/03/14 19:30:41;;;;;;;9.98;3.00;;;7.30;99.90;;;;;;5976564;23;20335;-37
2022/03/14 19:34:09;;;;;;;14.02;3.30;;;7.30;99.90;;;;;;5954208;23;20051;-37
2022/03/14 19:37:33;;;;;;;17.48;3.70;;;7.20;99.90;;;;;;5946443;23;20503;-37
2022/03/14 19:41:01;;;;;;;14.63;3.78;;;7.10;99.90;;;;;;6001929;23;20119;-37
2022/03/14 19:44:27;;;;;;;13.85;4.22;;;7.00;99.90;;;;;;6001091;23;20110;-37
2022/03/14 19:47:53;;;;;;;13.85;3.63;;;7.00;99.90;;;;;;5974657;23;20091;-37
2022/03/14 19:51:20;;;;;;;14.75;3.90;;;7.00;99.90;;;;;;5973836;23;20400;-37
2022/03/14 19:54:46;;;;;;;12.02;3.70;;;6.90;99.90;;;;;;5975951;23;20611;-37
2022/03/14 19:58:13;;;;;;;14.65;3.47;;;6.90;99.90;;;;;;5969983;23;20447;-37
2022/03/14 20:00:46;;;;;;;10.93;3.03;;;6.80;99.90;;;;;;5945862;23;20067;-37
2022/03/14 20:03:19;;;;;;;17.42;3.83;;;6.80;99.90;;;;;;5974494;23;20016;-37
2022/03/14 20:23:56;;;;;;;14.02;4.07;;;6.60;99.90;;;;;;5969797;23;20332;-37
2022/03/14 20:51:23;;;;;;;11.88;2.80;;;6.30;99.90;;;;;;6002042;23;20046;-37
2022/03/14 21:46:22;;;;;;;10.13;3.60;;;5.00;99.90;;;;;;6003830;23;20034;-37
2022/03/14 22:24:08;;;;;;;13.10;5.68;;;4.70;99.90;;;;;;6000857;23;20038;-37
2022/03/14 22:27:35;;;;;;;14.70;6.28;;;4.70;99.90;;;;;;6001578;23;20045;-37
2022/03/14 22:31:00;;;;;;;19.27;6.78;;;4.60;99.90;;;;;;6000853;23;20052;-37
2022/03/14 22:34:26;;;;;;;16.38;6.35;;;4.50;99.90;;;;;;6001900;23;20094;-37
2022/03/14 22:37:52;;;;;;;13.82;5.78;;;4.50;99.90;;;;;;5976281;23;20024;-37
2022/03/14 22:41:17;;;;;;;19.10;5.95;;;4.50;99.90;;;;;;6003068;23;20103;-37
2022/03/14 22:44:43;;;;;;;16.55;6.55;;;4.40;99.90;;;;;;6002658;23;20427;-37
2022/03/14 22:48:10;;;;;;;17.80;6.53;;;4.40;99.90;;;;;;6001440;23;20031;-37
2022/03/14 22:51:37;;;;;;;17.40;6.32;;;4.40;99.90;;;;;;6000409;23;20020;-37